Airfield :
LOGIN :

Register | Disclaimer

   EN    FR    IT 

 










Legend :    VFR   Marginal VFR   IFR   Intensive IFR   Very Intensive IFR
Visi :
Ceiling :
>= 8 km
>= 3000ft
5 to 8 km
1000 to 3000 ft
1500m to 5 km
500 to 1000 ft
800 to 1500m
200 to 500 ft
< 800m
< 200 ft
Symbols :   Thunderstorms  Fog  Heavy snow  Heavy precipitations  Wind > 20 kt
SIGMETs :     Misc.  Thunderstorms  Icing  Turbulence  Mountain Waves  Volcanic Ashes






- Airport Elevation : 70 ft
- IATA code : LEI


LEAM - Almeria

CURRENT METAR :
  • 231030Z 22005KT 170V260 9999 FEW010 19/16 Q1023

EXPIRED METARs :
  • 231000Z 21005KT 170V250 9999 FEW010 19/16 Q1023
  • 230930Z 21005KT 170V250 9999 FEW008 18/16 Q1023
  • 230900Z 27005KT 230V300 9999 FEW008 18/15 Q1023
  • 230830Z VRB02KT 9999 FEW008 17/14 Q1023
  • 230800Z 28003KT 250V360 9999 FEW009 16/15 Q1022

TAF TAF LEAM
Valid from the 23 at 09:00 until the 24 at 09:00 UTC


230800Z 2309/2409 29004KT 9999 FEW060 TX22/2311Z TN13/2406Z
BECMG 2309/2312 23018KT
PROB30
TEMPO 2313/2317 23018G28KT
BECMG 2318/2321 34008KT



MET'MAP, your aeronautical weather chart ! - Copyright ORBIFLY December 2007 - Disclaimer

ORBIFLY MET'MAP TEAM :

Programming & Development : Alexandra Zaïnal
Concept & original design : Baudouin d'Aumeries
Assistance for programming : Marc-Olivier Méhu
Technical & hardware support : Manuel Goepfert

Contact : metmap@orbifly.com




SOURCES & CREDITS :

   NOAA